sensor_id;sensor_type;location;lat;lon;timestamp;P1;durP1;ratioP1;P2;durP2;ratioP2
69783;SDS011;57054;51.978;4.498;2023-07-02T00:02:20;4.22;;;2.40;;
69783;SDS011;57054;51.978;4.498;2023-07-02T00:04:45;5.47;;;2.63;;
69783;SDS011;57054;51.978;4.498;2023-07-02T00:07:11;4.35;;;2.78;;
69783;SDS011;57054;51.978;4.498;2023-07-02T00:09:37;3.20;;;2.35;;
69783;SDS011;57054;51.978;4.498;2023-07-02T00:12:02;2.05;;;1.85;;
69783;SDS011;57054;51.978;4.498;2023-07-02T00:14:28;4.47;;;2.20;;
69783;SDS011;57054;51.978;4.498;2023-07-02T00:16:53;2.20;;;2.00;;
69783;SDS011;57054;51.978;4.498;2023-07-02T00:19:18;2.85;;;2.13;;
69783;SDS011;57054;51.978;4.498;2023-07-02T00:21:44;2.42;;;2.10;;
69783;SDS011;57054;51.978;4.498;2023-07-02T00:24:09;2.97;;;2.17;;
69783;SDS011;57054;51.978;4.498;2023-07-02T00:26:35;2.47;;;2.28;;
69783;SDS011;57054;51.978;4.498;2023-07-02T00:29:02;3.17;;;2.88;;
69783;SDS011;57054;51.978;4.498;2023-07-02T00:31:29;4.47;;;3.03;;
69783;SDS011;57054;51.978;4.498;2023-07-02T00:33:54;4.38;;;3.05;;
69783;SDS011;57054;51.978;4.498;2023-07-02T00:36:20;6.50;;;3.03;;
69783;SDS011;57054;51.978;4.498;2023-07-02T00:38:46;4.25;;;2.88;;
69783;SDS011;57054;51.978;4.498;2023-07-02T00:41:13;4.10;;;3.20;;
69783;SDS011;57054;51.978;4.498;2023-07-02T00:43:38;8.77;;;4.97;;
69783;SDS011;57054;51.978;4.498;2023-07-02T00:46:08;7.63;;;4.70;;
69783;SDS011;57054;51.978;4.498;2023-07-02T00:51:13;10.60;;;5.13;;
69783;SDS011;57054;51.978;4.498;2023-07-02T00:53:40;11.73;;;5.77;;
69783;SDS011;57054;51.978;4.498;2023-07-02T00:56:06;14.57;;;6.00;;
69783;SDS011;57054;51.978;4.498;2023-07-02T00:58:32;8.38;;;5.10;;
69783;SDS011;57054;51.978;4.498;2023-07-02T01:04:23;8.27;;;5.28;;
69783;SDS011;57054;51.978;4.498;2023-07-02T01:09:22;10.40;;;5.38;;
69783;SDS011;57054;51.978;4.498;2023-07-02T01:11:51;6.82;;;4.60;;
69783;SDS011;57054;51.978;4.498;2023-07-02T01:16:47;12.52;;;6.15;;
69783;SDS011;57054;51.978;4.498;2023-07-02T01:19:33;8.73;;;5.10;;
69783;SDS011;57054;51.978;4.498;2023-07-02T01:22:09;9.02;;;5.35;;
69783;SDS011;57054;51.978;4.498;2023-07-02T01:24:41;9.43;;;5.45;;
69783;SDS011;57054;51.978;4.498;2023-07-02T01:27:07;14.15;;;5.88;;
69783;SDS011;57054;51.978;4.498;2023-07-02T01:29:32;9.50;;;4.95;;
69783;SDS011;57054;51.978;4.498;2023-07-02T01:32:01;9.63;;;5.50;;
69783;SDS011;57054;51.978;4.498;2023-07-02T01:34:27;7.82;;;4.68;;
69783;SDS011;57054;51.978;4.498;2023-07-02T01:36:52;10.20;;;5.05;;
69783;SDS011;57054;51.978;4.498;2023-07-02T01:39:18;8.15;;;4.95;;
69783;SDS011;57054;51.978;4.498;2023-07-02T01:41:53;6.85;;;4.93;;
69783;SDS011;57054;51.978;4.498;2023-07-02T01:44:19;9.25;;;5.38;;
69783;SDS011;57054;51.978;4.498;2023-07-02T01:46:46;9.82;;;4.60;;
69783;SDS011;57054;51.978;4.498;2023-07-02T01:49:14;7.17;;;5.20;;
69783;SDS011;57054;51.978;4.498;2023-07-02T01:51:40;5.97;;;4.40;;
69783;SDS011;57054;51.978;4.498;2023-07-02T01:54:05;7.43;;;4.43;;
69783;SDS011;57054;51.978;4.498;2023-07-02T01:56:30;9.27;;;4.68;;
69783;SDS011;57054;51.978;4.498;2023-07-02T01:58:56;8.02;;;4.75;;
69783;SDS011;57054;51.978;4.498;2023-07-02T02:01:21;8.15;;;5.13;;
69783;SDS011;57054;51.978;4.498;2023-07-02T02:03:47;8.68;;;5.00;;
69783;SDS011;57054;51.978;4.498;2023-07-02T02:06:12;8.90;;;5.40;;
69783;SDS011;57054;51.978;4.498;2023-07-02T02:08:38;9.48;;;5.10;;
69783;SDS011;57054;51.978;4.498;2023-07-02T02:11:03;6.57;;;4.60;;
69783;SDS011;57054;51.978;4.498;2023-07-02T02:13:28;9.10;;;5.07;;
69783;SDS011;57054;51.978;4.498;2023-07-02T02:15:54;7.78;;;4.70;;
69783;SDS011;57054;51.978;4.498;2023-07-02T02:18:20;6.97;;;4.93;;
69783;SDS011;57054;51.978;4.498;2023-07-02T02:20:45;5.72;;;4.57;;
69783;SDS011;57054;51.978;4.498;2023-07-02T02:23:10;5.85;;;4.47;;
69783;SDS011;57054;51.978;4.498;2023-07-02T02:25:36;10.38;;;5.20;;
69783;SDS011;57054;51.978;4.498;2023-07-02T02:28:01;7.00;;;5.05;;
69783;SDS011;57054;51.978;4.498;2023-07-02T02:30:26;8.95;;;4.97;;
69783;SDS011;57054;51.978;4.498;2023-07-02T02:32:52;8.85;;;5.22;;
69783;SDS011;57054;51.978;4.498;2023-07-02T02:35:17;6.70;;;4.47;;
69783;SDS011;57054;51.978;4.498;2023-07-02T02:37:42;8.05;;;5.05;;
69783;SDS011;57054;51.978;4.498;2023-07-02T02:40:08;8.20;;;4.70;;
69783;SDS011;57054;51.978;4.498;2023-07-02T02:42:38;5.43;;;4.53;;
69783;SDS011;57054;51.978;4.498;2023-07-02T02:45:03;9.93;;;5.32;;
69783;SDS011;57054;51.978;4.498;2023-07-02T02:47:29;10.60;;;5.53;;
69783;SDS011;57054;51.978;4.498;2023-07-02T02:49:54;12.00;;;6.43;;
69783;SDS011;57054;51.978;4.498;2023-07-02T02:52:20;10.25;;;5.60;;
69783;SDS011;57054;51.978;4.498;2023-07-02T02:54:45;10.43;;;6.18;;
69783;SDS011;57054;51.978;4.498;2023-07-02T02:57:11;9.55;;;5.13;;
69783;SDS011;57054;51.978;4.498;2023-07-02T02:59:36;11.98;;;5.95;;
69783;SDS011;57054;51.978;4.498;2023-07-02T03:02:02;7.75;;;5.40;;
69783;SDS011;57054;51.978;4.498;2023-07-02T03:04:27;10.93;;;5.60;;
69783;SDS011;57054;51.978;4.498;2023-07-02T03:06:53;8.25;;;5.07;;
69783;SDS011;57054;51.978;4.498;2023-07-02T03:09:19;8.30;;;4.95;;
69783;SDS011;57054;51.978;4.498;2023-07-02T03:11:45;14.23;;;5.55;;
69783;SDS011;57054;51.978;4.498;2023-07-02T03:14:12;13.07;;;5.97;;
69783;SDS011;57054;51.978;4.498;2023-07-02T03:16:37;12.90;;;6.03;;
69783;SDS011;57054;51.978;4.498;2023-07-02T03:19:03;7.85;;;5.40;;
69783;SDS011;57054;51.978;4.498;2023-07-02T03:21:28;12.57;;;5.25;;
69783;SDS011;57054;51.978;4.498;2023-07-02T03:23:55;7.70;;;4.60;;
69783;SDS011;57054;51.978;4.498;2023-07-02T03:26:20;10.80;;;5.07;;
69783;SDS011;57054;51.978;4.498;2023-07-02T03:28:46;7.82;;;4.88;;
69783;SDS011;57054;51.978;4.498;2023-07-02T03:31:12;7.38;;;4.68;;
69783;SDS011;57054;51.978;4.498;2023-07-02T03:33:37;8.52;;;5.07;;
69783;SDS011;57054;51.978;4.498;2023-07-02T03:36:02;11.25;;;4.95;;
69783;SDS011;57054;51.978;4.498;2023-07-02T03:38:28;10.30;;;4.80;;
69783;SDS011;57054;51.978;4.498;2023-07-02T03:40:53;8.85;;;5.00;;
69783;SDS011;57054;51.978;4.498;2023-07-02T03:43:19;10.20;;;4.93;;
69783;SDS011;57054;51.978;4.498;2023-07-02T03:45:44;10.65;;;5.43;;
69783;SDS011;57054;51.978;4.498;2023-07-02T03:48:09;10.25;;;5.18;;
69783;SDS011;57054;51.978;4.498;2023-07-02T03:50:35;9.25;;;4.57;;
69783;SDS011;57054;51.978;4.498;2023-07-02T03:53:00;6.78;;;4.65;;
69783;SDS011;57054;51.978;4.498;2023-07-02T03:55:25;16.88;;;5.90;;
69783;SDS011;57054;51.978;4.498;2023-07-02T03:57:51;10.95;;;5.18;;
69783;SDS011;57054;51.978;4.498;2023-07-02T04:00:16;8.90;;;4.95;;
69783;SDS011;57054;51.978;4.498;2023-07-02T04:02:42;8.13;;;4.57;;
69783;SDS011;57054;51.978;4.498;2023-07-02T04:05:07;7.47;;;4.63;;
69783;SDS011;57054;51.978;4.498;2023-07-02T04:07:33;8.52;;;4.60;;
69783;SDS011;57054;51.978;4.498;2023-07-02T04:09:58;8.82;;;4.65;;
69783;SDS011;57054;51.978;4.498;2023-07-02T04:12:24;7.78;;;4.38;;
69783;SDS011;57054;51.978;4.498;2023-07-02T04:14:49;11.93;;;5.05;;
69783;SDS011;57054;51.978;4.498;2023-07-02T04:17:15;9.93;;;4.88;;
69783;SDS011;57054;51.978;4.498;2023-07-02T04:19:40;11.70;;;5.85;;
69783;SDS011;57054;51.978;4.498;2023-07-02T04:22:05;11.38;;;5.00;;
69783;SDS011;57054;51.978;4.498;2023-07-02T04:24:31;9.65;;;4.63;;
69783;SDS011;57054;51.978;4.498;2023-07-02T04:26:56;7.45;;;4.78;;
69783;SDS011;57054;51.978;4.498;2023-07-02T04:29:22;8.20;;;4.75;;
69783;SDS011;57054;51.978;4.498;2023-07-02T04:31:47;6.63;;;4.25;;
69783;SDS011;57054;51.978;4.498;2023-07-02T04:34:12;5.38;;;4.00;;
69783;SDS011;57054;51.978;4.498;2023-07-02T04:36:38;11.07;;;5.00;;
69783;SDS011;57054;51.978;4.498;2023-07-02T04:39:03;9.82;;;3.80;;
69783;SDS011;57054;51.978;4.498;2023-07-02T04:41:29;8.18;;;3.90;;
69783;SDS011;57054;51.978;4.498;2023-07-02T04:43:55;7.45;;;3.83;;
69783;SDS011;57054;51.978;4.498;2023-07-02T04:46:20;6.70;;;3.80;;
69783;SDS011;57054;51.978;4.498;2023-07-02T04:48:45;6.18;;;3.47;;
69783;SDS011;57054;51.978;4.498;2023-07-02T04:51:11;6.40;;;4.68;;
69783;SDS011;57054;51.978;4.498;2023-07-02T04:53:36;12.65;;;4.88;;
69783;SDS011;57054;51.978;4.498;2023-07-02T04:56:02;7.38;;;4.47;;
69783;SDS011;57054;51.978;4.498;2023-07-02T04:58:28;11.43;;;4.70;;
69783;SDS011;57054;51.978;4.498;2023-07-02T05:00:53;8.25;;;4.40;;
69783;SDS011;57054;51.978;4.498;2023-07-02T05:03:19;8.60;;;4.15;;
69783;SDS011;57054;51.978;4.498;2023-07-02T05:05:44;4.38;;;3.35;;
69783;SDS011;57054;51.978;4.498;2023-07-02T05:08:10;4.43;;;3.25;;
69783;SDS011;57054;51.978;4.498;2023-07-02T05:10:35;7.13;;;4.47;;
69783;SDS011;57054;51.978;4.498;2023-07-02T05:13:01;8.48;;;3.88;;
69783;SDS011;57054;51.978;4.498;2023-07-02T05:15:26;6.75;;;3.65;;
69783;SDS011;57054;51.978;4.498;2023-07-02T05:17:51;5.25;;;3.70;;
69783;SDS011;57054;51.978;4.498;2023-07-02T05:20:17;8.10;;;3.75;;
69783;SDS011;57054;51.978;4.498;2023-07-02T05:22:42;5.78;;;3.97;;
69783;SDS011;57054;51.978;4.498;2023-07-02T05:25:08;5.60;;;3.85;;
69783;SDS011;57054;51.978;4.498;2023-07-02T05:27:34;6.57;;;3.60;;
69783;SDS011;57054;51.978;4.498;2023-07-02T05:29:59;9.68;;;4.25;;
69783;SDS011;57054;51.978;4.498;2023-07-02T05:32:25;5.72;;;3.28;;
69783;SDS011;57054;51.978;4.498;2023-07-02T05:34:50;6.55;;;3.65;;
69783;SDS011;57054;51.978;4.498;2023-07-02T05:37:16;4.95;;;3.50;;
69783;SDS011;57054;51.978;4.498;2023-07-02T05:39:41;6.05;;;3.53;;
69783;SDS011;57054;51.978;4.498;2023-07-02T05:42:06;8.50;;;3.50;;
69783;SDS011;57054;51.978;4.498;2023-07-02T05:44:32;5.45;;;3.80;;
69783;SDS011;57054;51.978;4.498;2023-07-02T05:46:57;5.13;;;3.30;;
69783;SDS011;57054;51.978;4.498;2023-07-02T05:49:23;6.43;;;3.90;;
69783;SDS011;57054;51.978;4.498;2023-07-02T05:51:48;7.80;;;3.67;;
69783;SDS011;57054;51.978;4.498;2023-07-02T05:54:14;9.88;;;4.55;;
69783;SDS011;57054;51.978;4.498;2023-07-02T05:56:39;12.15;;;4.88;;
69783;SDS011;57054;51.978;4.498;2023-07-02T05:59:04;11.07;;;4.57;;
69783;SDS011;57054;51.978;4.498;2023-07-02T06:01:30;10.88;;;4.03;;
69783;SDS011;57054;51.978;4.498;2023-07-02T06:03:55;8.93;;;4.43;;
69783;SDS011;57054;51.978;4.498;2023-07-02T06:06:21;9.77;;;4.82;;
69783;SDS011;57054;51.978;4.498;2023-07-02T06:08:48;13.52;;;4.90;;
69783;SDS011;57054;51.978;4.498;2023-07-02T06:11:13;9.55;;;4.15;;
69783;SDS011;57054;51.978;4.498;2023-07-02T06:13:39;11.07;;;4.90;;
69783;SDS011;57054;51.978;4.498;2023-07-02T06:16:05;8.63;;;4.38;;
69783;SDS011;57054;51.978;4.498;2023-07-02T06:18:30;8.43;;;4.07;;
69783;SDS011;57054;51.978;4.498;2023-07-02T06:20:55;4.43;;;3.83;;
69783;SDS011;57054;51.978;4.498;2023-07-02T06:23:21;12.55;;;4.15;;
69783;SDS011;57054;51.978;4.498;2023-07-02T06:25:46;7.53;;;4.00;;
69783;SDS011;57054;51.978;4.498;2023-07-02T06:28:11;10.05;;;4.05;;
69783;SDS011;57054;51.978;4.498;2023-07-02T06:30:37;12.65;;;4.20;;
69783;SDS011;57054;51.978;4.498;2023-07-02T06:33:02;8.23;;;3.70;;
69783;SDS011;57054;51.978;4.498;2023-07-02T06:35:27;10.68;;;4.05;;
69783;SDS011;57054;51.978;4.498;2023-07-02T06:37:53;6.82;;;3.40;;
69783;SDS011;57054;51.978;4.498;2023-07-02T06:40:19;11.07;;;4.15;;
69783;SDS011;57054;51.978;4.498;2023-07-02T06:42:45;9.55;;;3.78;;
69783;SDS011;57054;51.978;4.498;2023-07-02T06:45:11;10.48;;;4.22;;
69783;SDS011;57054;51.978;4.498;2023-07-02T06:47:36;8.02;;;4.45;;
69783;SDS011;57054;51.978;4.498;2023-07-02T06:50:02;6.53;;;3.55;;
69783;SDS011;57054;51.978;4.498;2023-07-02T06:52:28;6.57;;;3.55;;
69783;SDS011;57054;51.978;4.498;2023-07-02T06:54:53;4.65;;;3.50;;
69783;SDS011;57054;51.978;4.498;2023-07-02T06:57:18;8.32;;;3.63;;
69783;SDS011;57054;51.978;4.498;2023-07-02T06:59:44;5.35;;;3.47;;
69783;SDS011;57054;51.978;4.498;2023-07-02T07:02:10;10.38;;;3.70;;
69783;SDS011;57054;51.978;4.498;2023-07-02T07:04:35;5.78;;;3.75;;
69783;SDS011;57054;51.978;4.498;2023-07-02T07:07:01;6.72;;;3.58;;
69783;SDS011;57054;51.978;4.498;2023-07-02T07:09:27;9.40;;;4.05;;
69783;SDS011;57054;51.978;4.498;2023-07-02T07:11:53;11.70;;;3.83;;
69783;SDS011;57054;51.978;4.498;2023-07-02T07:14:19;8.43;;;3.65;;
69783;SDS011;57054;51.978;4.498;2023-07-02T07:16:44;7.13;;;4.20;;
69783;SDS011;57054;51.978;4.498;2023-07-02T07:19:09;6.75;;;3.65;;
69783;SDS011;57054;51.978;4.498;2023-07-02T07:21:35;4.95;;;3.63;;
69783;SDS011;57054;51.978;4.498;2023-07-02T07:24:00;4.28;;;3.30;;
69783;SDS011;57054;51.978;4.498;2023-07-02T07:26:25;5.28;;;3.47;;
69783;SDS011;57054;51.978;4.498;2023-07-02T07:28:51;4.40;;;3.33;;
69783;SDS011;57054;51.978;4.498;2023-07-02T07:31:16;5.10;;;3.47;;
69783;SDS011;57054;51.978;4.498;2023-07-02T07:33:41;7.57;;;3.95;;
69783;SDS011;57054;51.978;4.498;2023-07-02T07:36:07;5.90;;;3.15;;
69783;SDS011;57054;51.978;4.498;2023-07-02T07:38:32;8.88;;;3.22;;
69783;SDS011;57054;51.978;4.498;2023-07-02T07:40:57;4.68;;;3.55;;
69783;SDS011;57054;51.978;4.498;2023-07-02T07:43:24;6.15;;;3.10;;
69783;SDS011;57054;51.978;4.498;2023-07-02T07:45:49;10.27;;;3.65;;
69783;SDS011;57054;51.978;4.498;2023-07-02T07:48:15;15.77;;;3.75;;
69783;SDS011;57054;51.978;4.498;2023-07-02T07:50:40;9.80;;;4.25;;
69783;SDS011;57054;51.978;4.498;2023-07-02T07:53:06;9.75;;;3.75;;
69783;SDS011;57054;51.978;4.498;2023-07-02T07:55:31;10.82;;;3.47;;
69783;SDS011;57054;51.978;4.498;2023-07-02T07:57:56;13.65;;;4.30;;
69783;SDS011;57054;51.978;4.498;2023-07-02T08:00:22;27.08;;;4.88;;
69783;SDS011;57054;51.978;4.498;2023-07-02T08:02:49;11.40;;;4.68;;
69783;SDS011;57054;51.978;4.498;2023-07-02T08:05:15;6.10;;;3.25;;
69783;SDS011;57054;51.978;4.498;2023-07-02T08:07:41;7.93;;;3.50;;
69783;SDS011;57054;51.978;4.498;2023-07-02T08:10:06;4.00;;;3.33;;
69783;SDS011;57054;51.978;4.498;2023-07-02T08:12:35;4.70;;;2.95;;
69783;SDS011;57054;51.978;4.498;2023-07-02T08:15:00;7.80;;;3.78;;
69783;SDS011;57054;51.978;4.498;2023-07-02T08:17:26;7.65;;;3.55;;
69783;SDS011;57054;51.978;4.498;2023-07-02T08:19:51;5.40;;;3.45;;
69783;SDS011;57054;51.978;4.498;2023-07-02T08:22:17;8.95;;;3.63;;
69783;SDS011;57054;51.978;4.498;2023-07-02T08:24:42;4.68;;;3.28;;
69783;SDS011;57054;51.978;4.498;2023-07-02T08:27:08;6.03;;;3.00;;
69783;SDS011;57054;51.978;4.498;2023-07-02T08:29:35;4.93;;;2.75;;
69783;SDS011;57054;51.978;4.498;2023-07-02T08:32:00;10.18;;;3.60;;
69783;SDS011;57054;51.978;4.498;2023-07-02T08:34:26;6.68;;;3.03;;
69783;SDS011;57054;51.978;4.498;2023-07-02T08:36:51;6.10;;;2.80;;
69783;SDS011;57054;51.978;4.498;2023-07-02T08:39:16;4.72;;;2.42;;
69783;SDS011;57054;51.978;4.498;2023-07-02T08:41:43;2.88;;;2.35;;
69783;SDS011;57054;51.978;4.498;2023-07-02T08:44:12;6.63;;;3.28;;
69783;SDS011;57054;51.978;4.498;2023-07-02T08:46:41;5.32;;;2.80;;
69783;SDS011;57054;51.978;4.498;2023-07-02T08:49:07;8.48;;;3.30;;
69783;SDS011;57054;51.978;4.498;2023-07-02T08:51:33;8.57;;;3.10;;
69783;SDS011;57054;51.978;4.498;2023-07-02T08:54:00;14.07;;;3.72;;
69783;SDS011;57054;51.978;4.498;2023-07-02T08:56:26;6.13;;;2.72;;
69783;SDS011;57054;51.978;4.498;2023-07-02T08:58:52;8.30;;;3.47;;
69783;SDS011;57054;51.978;4.498;2023-07-02T09:01:17;6.28;;;3.42;;
69783;SDS011;57054;51.978;4.498;2023-07-02T09:03:43;3.95;;;2.70;;
69783;SDS011;57054;51.978;4.498;2023-07-02T09:06:09;6.13;;;3.17;;
69783;SDS011;57054;51.978;4.498;2023-07-02T09:08:35;3.45;;;2.33;;
69783;SDS011;57054;51.978;4.498;2023-07-02T09:11:14;3.33;;;2.50;;
69783;SDS011;57054;51.978;4.498;2023-07-02T09:13:51;3.97;;;2.60;;
69783;SDS011;57054;51.978;4.498;2023-07-02T09:18:56;3.20;;;2.22;;
69783;SDS011;57054;51.978;4.498;2023-07-02T09:27:00;2.42;;;2.13;;
69783;SDS011;57054;51.978;4.498;2023-07-02T09:29:27;3.08;;;1.60;;
69783;SDS011;57054;51.978;4.498;2023-07-02T09:31:53;3.67;;;2.05;;
69783;SDS011;57054;51.978;4.498;2023-07-02T09:34:20;2.65;;;1.90;;
69783;SDS011;57054;51.978;4.498;2023-07-02T09:36:52;3.08;;;1.80;;
69783;SDS011;57054;51.978;4.498;2023-07-02T09:39:25;2.88;;;1.80;;
69783;SDS011;57054;51.978;4.498;2023-07-02T09:41:54;2.42;;;1.77;;
69783;SDS011;57054;51.978;4.498;2023-07-02T09:44:20;4.68;;;2.78;;
69783;SDS011;57054;51.978;4.498;2023-07-02T09:46:49;2.47;;;2.00;;
69783;SDS011;57054;51.978;4.498;2023-07-02T09:52:04;3.90;;;2.63;;
69783;SDS011;57054;51.978;4.498;2023-07-02T09:54:31;4.25;;;2.47;;
69783;SDS011;57054;51.978;4.498;2023-07-02T09:56:57;4.00;;;2.00;;
69783;SDS011;57054;51.978;4.498;2023-07-02T09:59:23;4.05;;;2.25;;
69783;SDS011;57054;51.978;4.498;2023-07-02T10:01:49;7.38;;;2.72;;
69783;SDS011;57054;51.978;4.498;2023-07-02T10:04:16;5.03;;;2.97;;
69783;SDS011;57054;51.978;4.498;2023-07-02T10:06:47;5.63;;;2.22;;
69783;SDS011;57054;51.978;4.498;2023-07-02T10:12:00;4.70;;;2.47;;
69783;SDS011;57054;51.978;4.498;2023-07-02T10:14:26;5.80;;;2.95;;
69783;SDS011;57054;51.978;4.498;2023-07-02T10:16:52;5.32;;;2.20;;
69783;SDS011;57054;51.978;4.498;2023-07-02T10:19:18;3.45;;;2.42;;
69783;SDS011;57054;51.978;4.498;2023-07-02T10:21:44;4.05;;;2.03;;
69783;SDS011;57054;51.978;4.498;2023-07-02T10:24:17;6.32;;;2.70;;
69783;SDS011;57054;51.978;4.498;2023-07-02T10:26:58;3.38;;;2.58;;
69783;SDS011;57054;51.978;4.498;2023-07-02T10:29:26;4.93;;;2.30;;
69783;SDS011;57054;51.978;4.498;2023-07-02T10:31:56;3.95;;;2.65;;
69783;SDS011;57054;51.978;4.498;2023-07-02T10:34:29;3.15;;;2.00;;
69783;SDS011;57054;51.978;4.498;2023-07-02T10:36:54;8.25;;;2.60;;
69783;SDS011;57054;51.978;4.498;2023-07-02T10:39:20;3.60;;;2.53;;
69783;SDS011;57054;51.978;4.498;2023-07-02T10:41:45;6.90;;;3.22;;
69783;SDS011;57054;51.978;4.498;2023-07-02T10:44:11;9.43;;;3.50;;
69783;SDS011;57054;51.978;4.498;2023-07-02T10:46:46;5.55;;;3.42;;
69783;SDS011;57054;51.978;4.498;2023-07-02T10:49:12;4.40;;;2.65;;
69783;SDS011;57054;51.978;4.498;2023-07-02T10:51:38;4.15;;;3.20;;
69783;SDS011;57054;51.978;4.498;2023-07-02T10:54:04;2.70;;;2.38;;
69783;SDS011;57054;51.978;4.498;2023-07-02T10:56:30;4.63;;;2.67;;
69783;SDS011;57054;51.978;4.498;2023-07-02T10:58:56;2.95;;;2.30;;
69783;SDS011;57054;51.978;4.498;2023-07-02T11:01:26;6.75;;;2.78;;
69783;SDS011;57054;51.978;4.498;2023-07-02T11:03:58;6.90;;;3.22;;
69783;SDS011;57054;51.978;4.498;2023-07-02T11:06:26;8.48;;;3.25;;
69783;SDS011;57054;51.978;4.498;2023-07-02T11:08:52;5.45;;;2.97;;
69783;SDS011;57054;51.978;4.498;2023-07-02T11:11:20;5.83;;;3.00;;
69783;SDS011;57054;51.978;4.498;2023-07-02T11:13:46;3.28;;;2.45;;
69783;SDS011;57054;51.978;4.498;2023-07-02T11:16:17;3.83;;;2.90;;
69783;SDS011;57054;51.978;4.498;2023-07-02T11:19:06;5.00;;;3.08;;
69783;SDS011;57054;51.978;4.498;2023-07-02T11:21:33;5.03;;;2.72;;
69783;SDS011;57054;51.978;4.498;2023-07-02T11:24:03;4.40;;;3.05;;
69783;SDS011;57054;51.978;4.498;2023-07-02T11:26:38;5.10;;;3.50;;
69783;SDS011;57054;51.978;4.498;2023-07-02T11:29:17;5.20;;;3.20;;
69783;SDS011;57054;51.978;4.498;2023-07-02T11:34:16;5.32;;;2.95;;
69783;SDS011;57054;51.978;4.498;2023-07-02T11:36:42;8.10;;;3.50;;
69783;SDS011;57054;51.978;4.498;2023-07-02T11:39:08;3.00;;;2.70;;
69783;SDS011;57054;51.978;4.498;2023-07-02T11:41:37;4.95;;;2.95;;
69783;SDS011;57054;51.978;4.498;2023-07-02T11:44:03;4.85;;;2.72;;
69783;SDS011;57054;51.978;4.498;2023-07-02T11:46:28;3.80;;;2.90;;
69783;SDS011;57054;51.978;4.498;2023-07-02T11:48:53;6.53;;;3.05;;
69783;SDS011;57054;51.978;4.498;2023-07-02T11:51:19;4.18;;;3.30;;
69783;SDS011;57054;51.978;4.498;2023-07-02T11:53:44;3.15;;;2.85;;
69783;SDS011;57054;51.978;4.498;2023-07-02T11:56:10;3.53;;;3.03;;
69783;SDS011;57054;51.978;4.498;2023-07-02T11:58:35;4.75;;;3.25;;
69783;SDS011;57054;51.978;4.498;2023-07-02T12:01:00;4.70;;;3.15;;
69783;SDS011;57054;51.978;4.498;2023-07-02T12:03:26;8.60;;;4.03;;
69783;SDS011;57054;51.978;4.498;2023-07-02T12:05:51;6.63;;;4.25;;
69783;SDS011;57054;51.978;4.498;2023-07-02T12:08:17;4.20;;;3.33;;
69783;SDS011;57054;51.978;4.498;2023-07-02T12:10:42;3.88;;;3.47;;
69783;SDS011;57054;51.978;4.498;2023-07-02T12:13:07;4.82;;;2.95;;
69783;SDS011;57054;51.978;4.498;2023-07-02T12:15:33;5.22;;;2.90;;
69783;SDS011;57054;51.978;4.498;2023-07-02T12:17:58;4.63;;;2.95;;
69783;SDS011;57054;51.978;4.498;2023-07-02T12:20:24;3.83;;;2.90;;
69783;SDS011;57054;51.978;4.498;2023-07-02T12:22:49;3.47;;;3.13;;
69783;SDS011;57054;51.978;4.498;2023-07-02T12:25:15;6.78;;;3.10;;
69783;SDS011;57054;51.978;4.498;2023-07-02T12:27:40;6.18;;;3.30;;
69783;SDS011;57054;51.978;4.498;2023-07-02T12:30:06;5.55;;;3.50;;
69783;SDS011;57054;51.978;4.498;2023-07-02T12:32:32;4.40;;;2.75;;
69783;SDS011;57054;51.978;4.498;2023-07-02T12:34:57;6.53;;;3.38;;
69783;SDS011;57054;51.978;4.498;2023-07-02T12:37:22;7.75;;;3.70;;
69783;SDS011;57054;51.978;4.498;2023-07-02T12:39:48;6.20;;;3.47;;
69783;SDS011;57054;51.978;4.498;2023-07-02T12:42:13;4.00;;;3.15;;
69783;SDS011;57054;51.978;4.498;2023-07-02T12:44:38;5.90;;;3.10;;
69783;SDS011;57054;51.978;4.498;2023-07-02T12:47:04;3.17;;;2.78;;
69783;SDS011;57054;51.978;4.498;2023-07-02T12:49:30;3.40;;;3.05;;
69783;SDS011;57054;51.978;4.498;2023-07-02T12:51:55;4.93;;;2.75;;
69783;SDS011;57054;51.978;4.498;2023-07-02T12:54:20;5.55;;;3.50;;
69783;SDS011;57054;51.978;4.498;2023-07-02T12:56:46;6.80;;;4.20;;
69783;SDS011;57054;51.978;4.498;2023-07-02T12:59:11;5.63;;;3.55;;
69783;SDS011;57054;51.978;4.498;2023-07-02T13:01:36;5.43;;;3.63;;
69783;SDS011;57054;51.978;4.498;2023-07-02T13:04:02;4.15;;;3.13;;
69783;SDS011;57054;51.978;4.498;2023-07-02T13:06:28;5.93;;;3.78;;
69783;SDS011;57054;51.978;4.498;2023-07-02T13:08:54;7.15;;;3.90;;
69783;SDS011;57054;51.978;4.498;2023-07-02T13:11:20;5.00;;;3.17;;
69783;SDS011;57054;51.978;4.498;2023-07-02T13:13:46;4.07;;;3.03;;
69783;SDS011;57054;51.978;4.498;2023-07-02T13:16:12;9.48;;;3.97;;
69783;SDS011;57054;51.978;4.498;2023-07-02T13:18:37;4.45;;;3.33;;
69783;SDS011;57054;51.978;4.498;2023-07-02T13:21:02;3.63;;;2.80;;
69783;SDS011;57054;51.978;4.498;2023-07-02T13:23:28;4.80;;;3.05;;
69783;SDS011;57054;51.978;4.498;2023-07-02T13:25:53;4.47;;;2.88;;
69783;SDS011;57054;51.978;4.498;2023-07-02T13:28:18;7.55;;;3.00;;
69783;SDS011;57054;51.978;4.498;2023-07-02T13:30:46;5.43;;;3.40;;
69783;SDS011;57054;51.978;4.498;2023-07-02T13:33:11;7.32;;;3.10;;
69783;SDS011;57054;51.978;4.498;2023-07-02T13:35:37;4.68;;;2.92;;
69783;SDS011;57054;51.978;4.498;2023-07-02T13:38:03;5.35;;;3.08;;
69783;SDS011;57054;51.978;4.498;2023-07-02T13:40:32;6.22;;;2.90;;
69783;SDS011;57054;51.978;4.498;2023-07-02T13:42:57;3.33;;;2.90;;
69783;SDS011;57054;51.978;4.498;2023-07-02T13:45:23;2.92;;;2.40;;
69783;SDS011;57054;51.978;4.498;2023-07-02T13:47:48;4.25;;;2.75;;
69783;SDS011;57054;51.978;4.498;2023-07-02T13:50:13;3.75;;;2.67;;
69783;SDS011;57054;51.978;4.498;2023-07-02T13:52:39;6.93;;;2.63;;
69783;SDS011;57054;51.978;4.498;2023-07-02T13:55:04;4.90;;;2.78;;
69783;SDS011;57054;51.978;4.498;2023-07-02T13:57:30;4.30;;;2.70;;
69783;SDS011;57054;51.978;4.498;2023-07-02T13:59:55;9.18;;;3.33;;
69783;SDS011;57054;51.978;4.498;2023-07-02T14:02:22;4.13;;;2.50;;
69783;SDS011;57054;51.978;4.498;2023-07-02T14:04:48;7.75;;;3.33;;
69783;SDS011;57054;51.978;4.498;2023-07-02T14:07:13;6.78;;;3.15;;
69783;SDS011;57054;51.978;4.498;2023-07-02T14:09:39;4.28;;;2.53;;
69783;SDS011;57054;51.978;4.498;2023-07-02T14:12:05;7.88;;;3.13;;
69783;SDS011;57054;51.978;4.498;2023-07-02T14:14:30;3.42;;;2.63;;
69783;SDS011;57054;51.978;4.498;2023-07-02T14:16:56;3.30;;;2.60;;
69783;SDS011;57054;51.978;4.498;2023-07-02T14:19:21;2.60;;;2.30;;
69783;SDS011;57054;51.978;4.498;2023-07-02T14:21:47;3.10;;;2.47;;
69783;SDS011;57054;51.978;4.498;2023-07-02T14:24:13;4.80;;;2.40;;
69783;SDS011;57054;51.978;4.498;2023-07-02T14:26:39;3.13;;;2.80;;
69783;SDS011;57054;51.978;4.498;2023-07-02T14:29:05;4.55;;;2.38;;
69783;SDS011;57054;51.978;4.498;2023-07-02T14:31:30;5.18;;;3.45;;
69783;SDS011;57054;51.978;4.498;2023-07-02T14:33:56;5.03;;;3.33;;
69783;SDS011;57054;51.978;4.498;2023-07-02T14:36:21;5.00;;;3.38;;
69783;SDS011;57054;51.978;4.498;2023-07-02T14:38:46;3.83;;;2.58;;
69783;SDS011;57054;51.978;4.498;2023-07-02T14:41:12;3.17;;;2.60;;
69783;SDS011;57054;51.978;4.498;2023-07-02T14:43:37;6.10;;;3.28;;
69783;SDS011;57054;51.978;4.498;2023-07-02T14:46:03;4.72;;;2.70;;
69783;SDS011;57054;51.978;4.498;2023-07-02T14:48:29;3.92;;;3.00;;
69783;SDS011;57054;51.978;4.498;2023-07-02T14:50:58;6.72;;;3.10;;
69783;SDS011;57054;51.978;4.498;2023-07-02T14:53:25;5.78;;;3.25;;
69783;SDS011;57054;51.978;4.498;2023-07-02T14:55:56;9.60;;;3.42;;
69783;SDS011;57054;51.978;4.498;2023-07-02T14:58:24;4.45;;;3.13;;
69783;SDS011;57054;51.978;4.498;2023-07-02T15:00:50;4.78;;;3.13;;
69783;SDS011;57054;51.978;4.498;2023-07-02T15:03:18;3.87;;;2.77;;
69783;SDS011;57054;51.978;4.498;2023-07-02T15:05:45;4.68;;;3.13;;
69783;SDS011;57054;51.978;4.498;2023-07-02T15:08:12;2.97;;;2.65;;